createdAt,value
2023-04-18T00:01:38.735Z,95720.91
2023-04-18T00:04:05.827Z,95724.78
2023-04-18T00:06:32.728Z,95716.91
2023-04-18T00:08:59.416Z,95713.72
2023-04-18T00:11:26.370Z,95706.25
2023-04-18T00:13:53.118Z,95712.91
2023-04-18T00:16:20.015Z,95715.19
2023-04-18T00:18:48.580Z,95706.91
2023-04-18T00:21:17.282Z,95705.88
2023-04-18T00:23:45.945Z,95690.81
2023-04-18T00:26:12.874Z,95701.31
2023-04-18T00:28:39.566Z,95694.59
2023-04-18T00:31:06.517Z,95695.25
2023-04-18T00:33:34.317Z,95686.22
2023-04-18T00:36:01.250Z,95693.44
2023-04-18T00:38:27.989Z,95690.59
2023-04-18T00:40:54.697Z,95686.97
2023-04-18T00:43:22.877Z,95692.75
2023-04-18T00:45:49.683Z,95694.84
2023-04-18T00:48:16.867Z,95686.81
2023-04-18T00:50:43.629Z,95697.75
2023-04-18T00:53:10.973Z,95687.25
2023-04-18T00:55:38.239Z,95688.06
2023-04-18T00:58:05.034Z,95689.06
2023-04-18T01:00:31.836Z,95689.91
2023-04-18T01:02:59.693Z,95696.16
2023-04-18T01:05:27.103Z,95694.72
2023-04-18T01:07:59.102Z,95701.53
2023-04-18T01:10:26.162Z,95692.28
2023-04-18T01:13:09.757Z,95689.59
2023-04-18T01:15:37.495Z,95683.69
2023-04-18T01:18:04.484Z,95697.25
2023-04-18T01:20:31.588Z,95694.34
2023-04-18T01:22:58.393Z,95689.34
2023-04-18T01:25:25.214Z,95685.38
2023-04-18T01:27:52.096Z,95683.53
2023-04-18T01:30:18.923Z,95684.50
2023-04-18T01:32:46.189Z,95675.94
2023-04-18T01:35:12.942Z,95680.22
2023-04-18T01:37:39.757Z,95672.47
2023-04-18T01:40:07.008Z,95664.13
2023-04-18T01:42:33.874Z,95677.28
2023-04-18T01:45:01.313Z,95670.78
2023-04-18T01:47:28.151Z,95670.47
2023-04-18T01:49:55.018Z,95662.94
2023-04-18T01:52:21.809Z,95663.06
2023-04-18T01:54:48.709Z,95656.63
2023-04-18T01:57:15.592Z,95659.53
2023-04-18T01:59:42.801Z,95662.50
2023-04-18T02:02:11.702Z,95659.66
2023-04-18T02:04:38.755Z,95662.66
2023-04-18T02:07:05.900Z,95661.72
2023-04-18T02:09:32.666Z,95661.97
2023-04-18T02:12:01.831Z,95662.34
2023-04-18T02:14:31.060Z,95671.84
2023-04-18T02:16:58.492Z,95670.19
2023-04-18T02:19:25.221Z,95665.53
2023-04-18T02:21:52.082Z,95664.81
2023-04-18T02:24:18.847Z,95670.69
2023-04-18T02:26:46.170Z,95666.03
2023-04-18T02:29:12.891Z,95667.13
2023-04-18T02:31:40.007Z,95676.53
2023-04-18T02:34:07.106Z,95667.34
2023-04-18T02:36:33.792Z,95669.72
2023-04-18T02:39:00.624Z,95675.38
2023-04-18T02:41:27.842Z,95672.94
2023-04-18T02:43:55.453Z,95672.63
2023-04-18T02:46:22.162Z,95666.66
2023-04-18T02:48:48.864Z,95672.31
2023-04-18T02:51:15.673Z,95668.13
2023-04-18T02:53:42.411Z,95662.34
2023-04-18T02:56:09.169Z,95672.66
2023-04-18T02:58:36.656Z,95672.22
2023-04-18T03:01:03.607Z,95662.59
2023-04-18T03:03:30.532Z,95666.34
2023-04-18T03:05:57.314Z,95665.66
2023-04-18T03:08:24.002Z,95657.25
2023-04-18T03:10:50.729Z,95669.19
2023-04-18T03:13:17.620Z,95664.75
2023-04-18T03:15:44.432Z,95667.44
2023-04-18T03:18:12.584Z,95669.69
2023-04-18T03:20:40.361Z,95666.38
2023-04-18T03:23:07.067Z,95669.22
2023-04-18T03:25:34.608Z,95664.19
2023-04-18T03:28:01.407Z,95669.72
2023-04-18T03:30:28.119Z,95666.53
2023-04-18T03:32:56.294Z,95667.72
2023-04-18T03:35:23.223Z,95668.66
2023-04-18T03:37:50.337Z,95662.53
2023-04-18T03:40:17.045Z,95670.72
2023-04-18T03:42:43.812Z,95664.78
2023-04-18T03:45:10.779Z,95667.47
2023-04-18T03:47:38.205Z,95665.13
2023-04-18T03:50:05.720Z,95669.44
2023-04-18T03:52:32.359Z,95665.13
2023-04-18T03:54:59.565Z,95661.97
2023-04-18T03:57:26.667Z,95668.50
2023-04-18T03:59:53.438Z,95667.22
2023-04-18T04:02:20.741Z,95673.09
2023-04-18T04:04:47.691Z,95669.34
2023-04-18T04:07:14.690Z,95663.72
2023-04-18T04:09:41.395Z,95662.66
2023-04-18T04:12:08.276Z,95661.84
2023-04-18T04:14:35.217Z,95661.03
2023-04-18T04:17:01.857Z,95668.97
2023-04-18T04:19:28.587Z,95668.16
2023-04-18T04:21:55.329Z,95658.31
2023-04-18T04:24:23.055Z,95654.09
2023-04-18T04:26:50.961Z,95660.78
2023-04-18T04:29:19.344Z,95657.13
2023-04-18T04:31:46.250Z,95661.25
2023-04-18T04:34:13.184Z,95658.31
2023-04-18T04:36:41.456Z,95663.72
2023-04-18T04:39:09.096Z,95665.00
2023-04-18T04:41:37.886Z,95671.34
2023-04-18T04:44:05.184Z,95666.53
2023-04-18T04:46:32.165Z,95662.31
2023-04-18T04:48:58.880Z,95668.97
2023-04-18T04:51:26.381Z,95665.38
2023-04-18T04:53:53.084Z,95668.84
2023-04-18T04:56:19.783Z,95666.75
2023-04-18T04:58:47.544Z,95667.81
2023-04-18T05:01:14.301Z,95664.06
2023-04-18T05:03:41.277Z,95663.59
2023-04-18T05:06:08.416Z,95665.34
2023-04-18T05:08:35.330Z,95677.00
2023-04-18T05:11:02.336Z,95666.41
2023-04-18T05:13:29.007Z,95673.69
2023-04-18T05:15:55.758Z,95680.59
2023-04-18T05:18:22.538Z,95677.03
2023-04-18T05:20:49.618Z,95681.53
2023-04-18T05:23:16.548Z,95674.13
2023-04-18T05:25:43.355Z,95676.91
2023-04-18T05:28:10.160Z,95667.13
2023-04-18T05:30:36.905Z,95673.16
2023-04-18T05:33:03.832Z,95675.78
2023-04-18T05:35:31.361Z,95681.09
2023-04-18T05:37:58.749Z,95687.81
2023-04-18T05:40:27.478Z,95677.59
2023-04-18T05:42:54.332Z,95678.41
2023-04-18T05:46:15.618Z,95679.50
2023-04-18T05:48:42.735Z,95679.81
2023-04-18T05:51:28.938Z,95680.19
2023-04-18T05:53:55.977Z,95681.84
2023-04-18T05:56:24.134Z,95684.50
2023-04-18T05:58:52.531Z,95681.66
2023-04-18T06:01:21.452Z,95682.88
2023-04-18T06:04:28.617Z,95689.19
2023-04-18T06:07:13.685Z,95686.09
2023-04-18T06:09:43.896Z,95685.69
2023-04-18T06:12:11.104Z,95690.16
2023-04-18T06:14:39.455Z,95691.91
2023-04-18T06:17:08.094Z,95687.34
2023-04-18T06:19:38.633Z,95696.47
2023-04-18T06:25:06.349Z,95697.19
2023-04-18T06:27:45.982Z,95703.72
2023-04-18T06:30:13.526Z,95697.47
2023-04-18T06:32:45.541Z,95704.59
2023-04-18T06:35:18.423Z,95693.06
2023-04-18T06:37:47.643Z,95692.81
2023-04-18T06:40:14.859Z,95698.66
2023-04-18T06:42:43.665Z,95695.28
2023-04-18T06:45:12.595Z,95696.31
2023-04-18T06:47:40.450Z,95702.41
2023-04-18T06:50:13.566Z,95697.88
2023-04-18T06:52:46.047Z,95701.88
2023-04-18T06:55:13.248Z,95709.63
2023-04-18T06:57:42.875Z,95705.41
2023-04-18T07:00:13.451Z,95699.06
2023-04-18T07:02:40.756Z,95699.88
2023-04-18T07:08:48.422Z,95705.63
2023-04-18T07:11:15.942Z,95702.97
2023-04-18T07:13:43.474Z,95707.38
2023-04-18T07:16:10.222Z,95701.78
2023-04-18T07:18:38.266Z,95694.69
2023-04-18T07:21:07.837Z,95695.72
2023-04-18T07:23:35.570Z,95689.50
2023-04-18T07:26:03.153Z,95692.53
2023-04-18T07:28:30.957Z,95689.50
2023-04-18T07:30:57.839Z,95688.19
2023-04-18T07:33:24.843Z,95681.25
2023-04-18T07:35:53.410Z,95682.38
2023-04-18T07:38:20.110Z,95678.19
2023-04-18T07:40:46.834Z,95677.75
2023-04-18T07:43:13.486Z,95665.44
2023-04-18T07:45:43.460Z,95668.66
2023-04-18T07:48:11.462Z,95668.97
2023-04-18T07:50:38.398Z,95667.63
2023-04-18T07:53:05.100Z,95670.66
2023-04-18T07:55:31.917Z,95670.41
2023-04-18T07:57:58.723Z,95669.63
2023-04-18T08:00:25.482Z,95675.38
2023-04-18T08:02:52.388Z,95673.06
2023-04-18T08:05:19.717Z,95670.28
2023-04-18T08:07:46.457Z,95668.13
2023-04-18T08:10:13.269Z,95664.16
2023-04-18T08:12:40.022Z,95668.13
2023-04-18T08:15:07.950Z,95665.31
2023-04-18T08:17:34.799Z,95670.06
2023-04-18T08:20:07.677Z,95661.69
2023-04-18T08:22:39.775Z,95668.66
2023-04-18T08:25:13.810Z,95661.06
2023-04-18T08:27:40.530Z,95660.47
2023-04-18T08:30:07.750Z,95652.75
2023-04-18T08:32:35.765Z,95659.44
2023-04-18T08:35:06.460Z,95659.00
2023-04-18T08:37:35.705Z,95652.41
2023-04-18T08:40:04.439Z,95655.38
2023-04-18T08:42:31.501Z,95650.16
2023-04-18T08:44:59.272Z,95643.78
2023-04-18T08:47:30.370Z,95642.34
2023-04-18T08:49:57.762Z,95643.94
2023-04-18T08:52:24.424Z,95649.50
2023-04-18T08:54:51.224Z,95647.69
2023-04-18T08:57:18.430Z,95657.69
2023-04-18T08:59:46.729Z,95644.06
2023-04-18T09:02:15.857Z,95643.31
2023-04-18T09:04:45.349Z,95634.09
2023-04-18T09:07:12.902Z,95646.19
2023-04-18T09:09:40.337Z,95642.22
2023-04-18T09:12:11.305Z,95647.66
2023-04-18T09:14:40.469Z,95653.88
2023-04-18T09:17:07.252Z,95655.53
2023-04-18T09:19:34.097Z,95649.28
2023-04-18T09:22:02.330Z,95645.16
2023-04-18T09:24:29.247Z,95647.59
2023-04-18T09:26:57.129Z,95645.72
2023-04-18T09:29:27.238Z,95642.75
2023-04-18T09:32:01.629Z,95638.22
2023-04-18T09:34:29.462Z,95639.88
2023-04-18T09:37:12.531Z,95642.75
2023-04-18T09:39:39.875Z,95642.31
2023-04-18T09:42:06.558Z,95642.88
2023-04-18T09:44:33.336Z,95626.19
2023-04-18T09:47:00.796Z,95636.16
2023-04-18T09:49:27.546Z,95636.91
2023-04-18T09:51:54.934Z,95635.34
2023-04-18T09:54:24.638Z,95627.41
2023-04-18T09:56:51.924Z,95624.28
2023-04-18T09:59:34.657Z,95629.91
2023-04-18T10:02:02.579Z,95631.38
2023-04-18T10:04:29.744Z,95627.50
2023-04-18T10:06:57.203Z,95624.25
2023-04-18T10:09:24.081Z,95620.50
2023-04-18T10:11:50.753Z,95625.34
2023-04-18T10:14:17.833Z,95628.19
2023-04-18T10:16:49.955Z,95625.19
2023-04-18T10:19:27.347Z,95609.72
2023-04-18T10:22:02.642Z,95620.13
2023-04-18T10:24:48.559Z,95611.69
2023-04-18T10:27:17.037Z,95616.03
2023-04-18T10:29:46.676Z,95613.34
2023-04-18T10:32:13.457Z,95609.66
2023-04-18T10:34:40.585Z,95607.78
2023-04-18T10:37:07.426Z,95609.75
2023-04-18T10:39:51.173Z,95609.63
2023-04-18T10:42:18.344Z,95608.47
2023-04-18T10:45:05.118Z,95605.84
2023-04-18T10:47:32.528Z,95600.81
2023-04-18T10:50:01.335Z,95604.09
2023-04-18T10:52:28.473Z,95598.56
2023-04-18T10:54:58.430Z,95592.97
2023-04-18T10:57:26.850Z,95593.47
2023-04-18T10:59:54.922Z,95593.88
2023-04-18T11:02:30.501Z,95595.06
2023-04-18T11:04:59.851Z,95591.31
2023-04-18T11:07:49.188Z,95596.56
2023-04-18T11:10:20.430Z,95588.84
2023-04-18T11:12:49.219Z,95592.75
2023-04-18T11:15:22.328Z,95593.94
2023-04-18T11:17:55.947Z,95592.38
2023-04-18T11:20:22.673Z,95592.88
2023-04-18T11:22:50.734Z,95589.72
2023-04-18T11:25:17.746Z,95584.88
2023-04-18T11:27:45.401Z,95578.25
2023-04-18T11:30:12.630Z,95580.72
2023-04-18T11:32:39.532Z,95576.25
2023-04-18T11:35:08.266Z,95576.75
2023-04-18T11:37:35.939Z,95575.63
2023-04-18T11:40:03.345Z,95586.06
2023-04-18T11:42:32.282Z,95579.59
2023-04-18T11:44:58.933Z,95576.06
2023-04-18T11:47:29.936Z,95575.84
2023-04-18T11:49:57.576Z,95566.41
2023-04-18T11:52:24.736Z,95578.59
2023-04-18T11:54:52.336Z,95571.09
2023-04-18T11:57:20.050Z,95567.94
2023-04-18T11:59:53.394Z,95566.16
2023-04-18T12:02:20.581Z,95559.38
2023-04-18T12:04:52.423Z,95571.69
2023-04-18T12:07:33.640Z,95563.63
2023-04-18T12:10:01.056Z,95576.72
2023-04-18T12:12:27.832Z,95568.03
2023-04-18T12:14:58.513Z,95572.16
2023-04-18T12:17:28.513Z,95569.59
2023-04-18T12:19:57.922Z,95581.91
2023-04-18T12:22:43.233Z,95572.09
2023-04-18T12:25:10.575Z,95566.34
2023-04-18T12:27:52.711Z,95575.38
2023-04-18T12:30:22.709Z,95568.47
2023-04-18T12:32:50.596Z,95562.41
2023-04-18T12:35:19.710Z,95568.31
2023-04-18T12:37:49.729Z,95566.91
2023-04-18T12:40:19.129Z,95556.75
2023-04-18T12:42:46.380Z,95560.09
2023-04-18T12:45:13.342Z,95558.47
2023-04-18T12:47:44.199Z,95554.47
2023-04-18T12:50:11.826Z,95560.06
2023-04-18T12:52:39.285Z,95563.19
2023-04-18T12:55:07.450Z,95562.28
2023-04-18T12:57:34.152Z,95561.59
2023-04-18T13:00:00.898Z,95551.94
2023-04-18T13:02:29.704Z,95550.09
2023-04-18T13:04:57.148Z,95557.44
2023-04-18T13:07:24.691Z,95553.97
2023-04-18T13:09:51.446Z,95556.53
2023-04-18T13:12:18.673Z,95551.97
2023-04-18T13:14:45.557Z,95560.59
2023-04-18T13:17:12.445Z,95563.53
2023-04-18T13:19:39.334Z,95552.38
2023-04-18T13:22:06.119Z,95552.78
2023-04-18T13:24:33.244Z,95561.41
2023-04-18T13:27:01.613Z,95556.31
2023-04-18T13:29:28.871Z,95557.59
2023-04-18T13:31:55.771Z,95563.81
2023-04-18T13:34:22.480Z,95562.78
2023-04-18T13:36:49.224Z,95562.38
2023-04-18T13:39:16.780Z,95565.84
2023-04-18T13:41:43.830Z,95565.03
2023-04-18T13:44:10.617Z,95568.94
2023-04-18T13:46:37.301Z,95557.06
2023-04-18T13:49:04.029Z,95558.75
2023-04-18T13:51:31.391Z,95570.22
2023-04-18T13:54:00.395Z,95573.88
2023-04-18T13:56:28.570Z,95549.25
2023-04-18T13:58:55.699Z,95555.59
2023-04-18T14:01:22.976Z,95556.53
2023-04-18T14:03:50.386Z,95560.94
2023-04-18T14:06:21.209Z,95552.34
2023-04-18T14:08:49.438Z,95557.91
2023-04-18T14:11:23.099Z,95568.63
2023-04-18T14:13:50.226Z,95556.78
2023-04-18T14:16:17.036Z,95555.81
2023-04-18T14:18:44.078Z,95557.75
2023-04-18T14:21:13.396Z,95553.19
2023-04-18T14:23:42.578Z,95555.00
2023-04-18T14:26:09.627Z,95553.88
2023-04-18T14:28:50.502Z,95549.19
2023-04-18T14:31:17.607Z,95546.28
2023-04-18T14:33:47.709Z,95550.31
2023-04-18T14:36:17.471Z,95547.53
2023-04-18T14:38:47.536Z,95554.50
2023-04-18T14:41:30.779Z,95556.28
2023-04-18T14:43:57.811Z,95558.28
2023-04-18T14:46:24.752Z,95556.16
2023-04-18T14:48:51.557Z,95557.09
2023-04-18T14:51:18.516Z,95558.13
2023-04-18T14:53:45.821Z,95562.25
2023-04-18T14:56:12.590Z,95565.81
2023-04-18T14:58:39.541Z,95556.41
2023-04-18T15:01:06.460Z,95567.03
2023-04-18T15:03:33.543Z,95557.84
2023-04-18T15:06:00.648Z,95563.28
2023-04-18T15:08:27.578Z,95559.03
2023-04-18T15:10:54.465Z,95560.09
2023-04-18T15:13:21.219Z,95558.53
2023-04-18T15:15:51.428Z,95563.63
2023-04-18T15:18:18.208Z,95543.31
2023-04-18T15:20:45.028Z,95557.44
2023-04-18T15:23:13.962Z,95560.66
2023-04-18T15:25:41.447Z,95562.06
2023-04-18T15:28:08.226Z,95562.84
2023-04-18T15:30:35.209Z,95573.13
2023-04-18T15:33:02.749Z,95571.41
2023-04-18T15:35:29.491Z,95565.63
2023-04-18T15:37:56.757Z,95576.88
2023-04-18T15:40:23.738Z,95564.25
2023-04-18T15:42:51.345Z,95569.03
2023-04-18T15:45:18.894Z,95570.88
2023-04-18T15:47:45.809Z,95571.19
2023-04-18T15:50:12.573Z,95572.78
2023-04-18T15:52:41.870Z,95581.44
2023-04-18T15:55:10.458Z,95576.66
2023-04-18T15:57:37.430Z,95576.13
2023-04-18T16:00:06.870Z,95577.81
2023-04-18T16:02:33.854Z,95578.63
2023-04-18T16:05:00.758Z,95578.31
2023-04-18T16:07:27.543Z,95576.22
2023-04-18T16:09:54.223Z,95592.97
2023-04-18T16:12:21.128Z,95588.09
2023-04-18T16:14:47.895Z,95582.47
2023-04-18T16:17:14.601Z,95589.06
2023-04-18T16:19:41.398Z,95582.22
2023-04-18T16:22:08.209Z,95598.88
2023-04-18T16:24:34.910Z,95591.81
2023-04-18T16:27:01.660Z,95596.69
2023-04-18T16:29:28.403Z,95598.06
2023-04-18T16:31:55.119Z,95596.69
2023-04-18T16:34:21.956Z,95603.25
2023-04-18T16:36:50.790Z,95590.22
2023-04-18T16:39:19.060Z,95599.56
2023-04-18T16:41:45.952Z,95601.78
2023-04-18T16:44:12.944Z,95612.53
2023-04-18T16:46:40.235Z,95593.28
2023-04-18T16:49:07.037Z,95596.38
2023-04-18T16:51:36.562Z,95605.97
2023-04-18T16:54:03.713Z,95605.97
2023-04-18T16:56:31.077Z,95609.56
2023-04-18T16:58:58.388Z,95603.31
2023-04-18T17:01:25.158Z,95606.59
2023-04-18T17:03:52.048Z,95623.22
2023-04-18T17:06:19.808Z,95612.06
2023-04-18T17:08:46.633Z,95618.09
2023-04-18T17:11:13.287Z,95625.75
2023-04-18T17:13:40.169Z,95647.03
2023-04-18T17:16:07.486Z,95623.66
2023-04-18T17:18:34.340Z,95633.19
2023-04-18T17:21:01.143Z,95633.47
2023-04-18T17:23:27.934Z,95649.28
2023-04-18T17:25:54.700Z,95644.38
2023-04-18T17:28:23.832Z,95650.38
2023-04-18T17:30:51.149Z,95643.28
2023-04-18T17:33:18.011Z,95650.09
2023-04-18T17:35:44.849Z,95653.38
2023-04-18T17:38:11.656Z,95654.75
2023-04-18T17:40:39.657Z,95650.09
2023-04-18T17:43:06.587Z,95655.00
2023-04-18T17:45:33.579Z,95657.97
2023-04-18T17:48:03.529Z,95663.41
2023-04-18T17:50:30.711Z,95664.47
2023-04-18T17:52:57.950Z,95668.81
2023-04-18T17:55:26.515Z,95673.69
2023-04-18T17:57:53.266Z,95671.50
2023-04-18T18:00:20.479Z,95665.50
2023-04-18T18:02:47.477Z,95676.31
2023-04-18T18:05:14.426Z,95670.06
2023-04-18T18:07:43.797Z,95686.34
2023-04-18T18:10:11.932Z,95680.34
2023-04-18T18:12:40.112Z,95677.56
2023-04-18T18:15:10.246Z,95681.91
2023-04-18T18:17:37.023Z,95686.75
2023-04-18T18:20:12.757Z,95688.09
2023-04-18T18:22:39.375Z,95693.97
2023-04-18T18:25:06.586Z,95689.59
2023-04-18T18:27:33.448Z,95693.09
2023-04-18T18:30:00.222Z,95686.81
2023-04-18T18:32:27.188Z,95701.94
2023-04-18T18:34:53.933Z,95705.97
2023-04-18T18:37:23.632Z,95704.56
2023-04-18T18:39:50.452Z,95709.44
2023-04-18T18:42:17.198Z,95707.53
2023-04-18T18:44:43.927Z,95712.72
2023-04-18T18:47:10.778Z,95713.75
2023-04-18T18:49:37.479Z,95715.59
2023-04-18T18:52:05.704Z,95712.88
2023-04-18T18:54:32.569Z,95711.50
2023-04-18T18:57:00.423Z,95726.38
2023-04-18T18:59:27.197Z,95727.97
2023-04-18T19:01:54.093Z,95733.13
2023-04-18T19:04:21.242Z,95740.72
2023-04-18T19:06:48.106Z,95739.63
2023-04-18T19:09:15.257Z,95736.34
2023-04-18T19:11:42.471Z,95741.16
2023-04-18T19:14:09.210Z,95743.84
2023-04-18T19:16:36.528Z,95739.25
2023-04-18T19:19:03.344Z,95740.63
2023-04-18T19:21:30.100Z,95747.09
2023-04-18T19:23:56.915Z,95741.66
2023-04-18T19:26:23.594Z,95750.22
2023-04-18T19:28:50.527Z,95748.53
2023-04-18T19:31:17.396Z,95756.88
2023-04-18T19:33:44.184Z,95750.84
2023-04-18T19:36:10.994Z,95754.63
2023-04-18T19:38:37.788Z,95752.47
2023-04-18T19:41:04.463Z,95767.91
2023-04-18T19:43:31.170Z,95760.56
2023-04-18T19:45:58.472Z,95764.59
2023-04-18T19:48:25.265Z,95767.72
2023-04-18T19:50:52.076Z,95765.13
2023-04-18T19:53:19.376Z,95763.75
2023-04-18T19:55:46.504Z,95763.19
2023-04-18T19:58:17.058Z,95763.69
2023-04-18T20:00:43.860Z,95774.53
2023-04-18T20:03:11.460Z,95771.25
2023-04-18T20:05:38.822Z,95769.63
2023-04-18T20:08:05.730Z,95773.91
2023-04-18T20:10:33.480Z,95772.25
2023-04-18T20:13:00.223Z,95777.84
2023-04-18T20:15:30.309Z,95779.69
2023-04-18T20:17:57.386Z,95775.81
2023-04-18T20:20:24.101Z,95782.00
2023-04-18T20:22:50.924Z,95776.81
2023-04-18T20:25:17.892Z,95777.56
2023-04-18T20:27:44.961Z,95779.38
2023-04-18T20:30:11.953Z,95777.66
2023-04-18T20:32:38.970Z,95783.81
2023-04-18T20:35:05.939Z,95781.63
2023-04-18T20:37:37.002Z,95786.97
2023-04-18T20:40:09.098Z,95786.06
2023-04-18T20:42:36.913Z,95786.47
2023-04-18T20:45:04.128Z,95789.16
2023-04-18T20:47:31.187Z,95785.31
2023-04-18T20:49:57.916Z,95785.00
2023-04-18T20:52:24.686Z,95791.72
2023-04-18T20:54:51.410Z,95785.16
2023-04-18T20:57:19.081Z,95793.19
2023-04-18T20:59:45.958Z,95788.78
2023-04-18T21:02:12.924Z,95802.34
2023-04-18T21:04:40.025Z,95795.47
2023-04-18T21:07:06.827Z,95793.44
2023-04-18T21:09:36.988Z,95798.44
2023-04-18T21:12:04.098Z,95807.81
2023-04-18T21:14:30.864Z,95797.47
2023-04-18T21:16:57.650Z,95803.38
2023-04-18T21:19:24.988Z,95804.09
2023-04-18T21:21:51.651Z,95806.69
2023-04-18T21:24:18.459Z,95803.41
2023-04-18T21:26:45.379Z,95808.94
2023-04-18T21:29:12.055Z,95814.59
2023-04-18T21:31:38.876Z,95813.78
2023-04-18T21:34:05.565Z,95813.78
2023-04-18T21:36:32.560Z,95811.09
2023-04-18T21:38:59.656Z,95810.41
2023-04-18T21:41:26.584Z,95815.44
2023-04-18T21:43:53.427Z,95809.72
2023-04-18T21:46:20.527Z,95819.59
2023-04-18T21:48:47.500Z,95816.69
2023-04-18T21:51:15.139Z,95817.03
2023-04-18T21:53:41.805Z,95825.97
2023-04-18T21:56:08.723Z,95824.66
2023-04-18T21:58:35.623Z,95824.09
2023-04-18T22:01:02.572Z,95824.78
2023-04-18T22:03:29.879Z,95827.03
2023-04-18T22:05:57.816Z,95819.88
2023-04-18T22:08:26.078Z,95822.09
2023-04-18T22:10:55.156Z,95824.88
2023-04-18T22:13:22.807Z,95817.84
2023-04-18T22:15:50.392Z,95818.47
2023-04-18T22:18:18.032Z,95824.41
2023-04-18T22:20:45.347Z,95815.50
2023-04-18T22:23:12.060Z,95819.41
2023-04-18T22:25:38.895Z,95816.81
2023-04-18T22:28:05.774Z,95817.75
2023-04-18T22:30:32.462Z,95819.03
2023-04-18T22:32:59.529Z,95827.38
2023-04-18T22:35:26.867Z,95825.97
2023-04-18T22:37:53.656Z,95824.78
2023-04-18T22:40:20.440Z,95815.03
2023-04-18T22:42:47.408Z,95825.81
2023-04-18T22:45:15.037Z,95830.41
2023-04-18T22:47:41.948Z,95829.84
2023-04-18T22:50:08.813Z,95823.84
2023-04-18T22:52:35.610Z,95829.22
2023-04-18T22:55:02.979Z,95830.50
2023-04-18T22:57:29.877Z,95824.72
2023-04-18T22:59:56.670Z,95834.47
2023-04-18T23:02:23.600Z,95832.31
2023-04-18T23:04:51.061Z,95837.22
2023-04-18T23:07:17.872Z,95836.50
2023-04-18T23:09:45.285Z,95837.88
2023-04-18T23:12:12.081Z,95834.69
2023-04-18T23:14:39.107Z,95836.19
2023-04-18T23:17:05.842Z,95837.94
2023-04-18T23:19:32.547Z,95840.72
2023-04-18T23:21:59.962Z,95842.91
2023-04-18T23:24:27.027Z,95840.44
2023-04-18T23:26:53.801Z,95837.59
2023-04-18T23:29:20.563Z,95835.59
2023-04-18T23:31:47.600Z,95835.69
2023-04-18T23:34:14.509Z,95837.16
2023-04-18T23:36:42.604Z,95836.59
2023-04-18T23:39:09.491Z,95835.97
2023-04-18T23:41:36.254Z,95839.50
2023-04-18T23:44:03.013Z,95829.78
2023-04-18T23:46:30.254Z,95831.28
2023-04-18T23:48:57.085Z,95838.00
2023-04-18T23:51:23.775Z,95837.78
2023-04-18T23:53:51.326Z,95835.53
2023-04-18T23:56:18.018Z,95835.59
2023-04-18T23:58:45.083Z,95843.38
